sensor_id;sensor_type;location;lat;lon;timestamp;pressure;altitude;pressure_sealevel;temperature;humidity
5284;BME280;15377;48.540;9.268;2023-02-18T00:02:12;98446.06;;;11.67;100.00
5284;BME280;15377;48.540;9.268;2023-02-18T00:04:37;98460.34;;;11.75;100.00
5284;BME280;15377;48.540;9.268;2023-02-18T00:07:02;98462.78;;;11.73;100.00
5284;BME280;15377;48.540;9.268;2023-02-18T00:09:28;98466.47;;;11.70;100.00
5284;BME280;15377;48.540;9.268;2023-02-18T00:11:53;98467.34;;;11.67;100.00
5284;BME280;15377;48.540;9.268;2023-02-18T00:14:19;98458.31;;;11.66;100.00
5284;BME280;15377;48.540;9.268;2023-02-18T00:16:44;98450.81;;;11.67;100.00
5284;BME280;15377;48.540;9.268;2023-02-18T00:19:13;98454.78;;;11.66;100.00
5284;BME280;15377;48.540;9.268;2023-02-18T00:21:39;98441.47;;;11.64;100.00
5284;BME280;15377;48.540;9.268;2023-02-18T00:24:05;98430.75;;;11.66;100.00
5284;BME280;15377;48.540;9.268;2023-02-18T00:26:31;98439.16;;;11.63;100.00
5284;BME280;15377;48.540;9.268;2023-02-18T00:28:57;98436.09;;;11.61;100.00
5284;BME280;15377;48.540;9.268;2023-02-18T00:31:28;98440.03;;;11.60;100.00
5284;BME280;15377;48.540;9.268;2023-02-18T00:33:56;98433.00;;;11.59;100.00
5284;BME280;15377;48.540;9.268;2023-02-18T00:36:22;98426.72;;;11.58;100.00
5284;BME280;15377;48.540;9.268;2023-02-18T00:38:52;98428.28;;;11.59;100.00
5284;BME280;15377;48.540;9.268;2023-02-18T00:41:20;98432.88;;;11.62;100.00
5284;BME280;15377;48.540;9.268;2023-02-18T00:43:46;98435.75;;;11.59;100.00
5284;BME280;15377;48.540;9.268;2023-02-18T00:46:11;98432.13;;;11.62;100.00
5284;BME280;15377;48.540;9.268;2023-02-18T00:48:37;98437.75;;;11.58;100.00
5284;BME280;15377;48.540;9.268;2023-02-18T00:51:03;98457.81;;;11.59;100.00
5284;BME280;15377;48.540;9.268;2023-02-18T00:53:29;98427.59;;;11.55;100.00
5284;BME280;15377;48.540;9.268;2023-02-18T00:55:55;98448.66;;;11.62;100.00
5284;BME280;15377;48.540;9.268;2023-02-18T00:58:21;98429.91;;;11.57;100.00
5284;BME280;15377;48.540;9.268;2023-02-18T01:00:46;98427.50;;;11.59;100.00
5284;BME280;15377;48.540;9.268;2023-02-18T01:03:12;98426.47;;;11.65;100.00
5284;BME280;15377;48.540;9.268;2023-02-18T01:05:38;98424.16;;;11.64;100.00
5284;BME280;15377;48.540;9.268;2023-02-18T01:08:04;98417.72;;;11.67;100.00
5284;BME280;15377;48.540;9.268;2023-02-18T01:10:30;98417.41;;;11.65;100.00
5284;BME280;15377;48.540;9.268;2023-02-18T01:12:55;98410.81;;;11.62;100.00
5284;BME280;15377;48.540;9.268;2023-02-18T01:15:21;98413.72;;;11.68;100.00
5284;BME280;15377;48.540;9.268;2023-02-18T01:17:47;98410.94;;;11.59;100.00
5284;BME280;15377;48.540;9.268;2023-02-18T01:20:13;98410.06;;;11.62;100.00
5284;BME280;15377;48.540;9.268;2023-02-18T01:22:39;98408.53;;;11.61;100.00
5284;BME280;15377;48.540;9.268;2023-02-18T01:25:05;98409.06;;;11.56;100.00
5284;BME280;15377;48.540;9.268;2023-02-18T01:27:30;98417.69;;;11.58;100.00
5284;BME280;15377;48.540;9.268;2023-02-18T01:29:55;98409.59;;;11.63;100.00
5284;BME280;15377;48.540;9.268;2023-02-18T01:32:21;98404.84;;;11.64;100.00
5284;BME280;15377;48.540;9.268;2023-02-18T01:34:47;98401.31;;;11.63;100.00
5284;BME280;15377;48.540;9.268;2023-02-18T01:37:12;98398.75;;;11.69;100.00
5284;BME280;15377;48.540;9.268;2023-02-18T01:39:38;98399.63;;;11.66;100.00
5284;BME280;15377;48.540;9.268;2023-02-18T01:42:04;98395.63;;;11.58;100.00
5284;BME280;15377;48.540;9.268;2023-02-18T01:44:31;98386.31;;;11.64;100.00
5284;BME280;15377;48.540;9.268;2023-02-18T01:46:57;98380.03;;;11.64;100.00
5284;BME280;15377;48.540;9.268;2023-02-18T01:49:26;98373.44;;;11.61;100.00
5284;BME280;15377;48.540;9.268;2023-02-18T01:52:17;98380.97;;;11.70;100.00
5284;BME280;15377;48.540;9.268;2023-02-18T01:54:47;98385.56;;;11.64;100.00
5284;BME280;15377;48.540;9.268;2023-02-18T01:57:20;98386.31;;;11.64;100.00
5284;BME280;15377;48.540;9.268;2023-02-18T01:59:58;98397.34;;;11.64;100.00
5284;BME280;15377;48.540;9.268;2023-02-18T02:02:26;98395.03;;;11.63;100.00
5284;BME280;15377;48.540;9.268;2023-02-18T02:04:52;98397.50;;;11.61;100.00
5284;BME280;15377;48.540;9.268;2023-02-18T02:07:20;98384.28;;;11.56;100.00
5284;BME280;15377;48.540;9.268;2023-02-18T02:09:47;98384.91;;;11.60;100.00
5284;BME280;15377;48.540;9.268;2023-02-18T02:15:22;98378.91;;;11.52;100.00
5284;BME280;15377;48.540;9.268;2023-02-18T02:18:16;98372.91;;;11.45;100.00
5284;BME280;15377;48.540;9.268;2023-02-18T02:32:28;98359.88;;;11.06;100.00
5284;BME280;15377;48.540;9.268;2023-02-18T02:35:19;98355.53;;;10.96;100.00
5284;BME280;15377;48.540;9.268;2023-02-18T02:38:00;98344.47;;;10.87;100.00
5284;BME280;15377;48.540;9.268;2023-02-18T02:43:23;98354.97;;;10.80;100.00
5284;BME280;15377;48.540;9.268;2023-02-18T02:46:08;98358.19;;;10.78;100.00
5284;BME280;15377;48.540;9.268;2023-02-18T02:48:42;98361.09;;;10.83;100.00
5284;BME280;15377;48.540;9.268;2023-02-18T02:53:39;98356.75;;;10.95;100.00
5284;BME280;15377;48.540;9.268;2023-02-18T02:56:05;98343.94;;;11.01;100.00
5284;BME280;15377;48.540;9.268;2023-02-18T02:58:31;98343.00;;;11.04;100.00
5284;BME280;15377;48.540;9.268;2023-02-18T03:11:37;98331.03;;;11.28;100.00
5284;BME280;15377;48.540;9.268;2023-02-18T03:14:31;98332.16;;;11.40;100.00
5284;BME280;15377;48.540;9.268;2023-02-18T03:17:10;98327.56;;;11.37;100.00
5284;BME280;15377;48.540;9.268;2023-02-18T03:19:55;98332.16;;;11.40;100.00
5284;BME280;15377;48.540;9.268;2023-02-18T03:22:31;98323.56;;;11.38;100.00
5284;BME280;15377;48.540;9.268;2023-02-18T03:24:58;98326.94;;;11.42;100.00
5284;BME280;15377;48.540;9.268;2023-02-18T03:27:29;98330.34;;;11.46;100.00
5284;BME280;15377;48.540;9.268;2023-02-18T03:30:03;98342.13;;;11.46;100.00
5284;BME280;15377;48.540;9.268;2023-02-18T03:32:32;98337.38;;;11.47;100.00
5284;BME280;15377;48.540;9.268;2023-02-18T03:35:08;98337.41;;;11.56;100.00
5284;BME280;15377;48.540;9.268;2023-02-18T03:37:37;98345.25;;;11.57;100.00
5284;BME280;15377;48.540;9.268;2023-02-18T03:40:05;98336.84;;;11.61;100.00
5284;BME280;15377;48.540;9.268;2023-02-18T03:42:31;98328.25;;;11.59;100.00
5284;BME280;15377;48.540;9.268;2023-02-18T03:44:57;98327.91;;;11.57;100.00
5284;BME280;15377;48.540;9.268;2023-02-18T03:47:23;98322.38;;;11.48;100.00
5284;BME280;15377;48.540;9.268;2023-02-18T03:49:49;98310.44;;;11.51;100.00
5284;BME280;15377;48.540;9.268;2023-02-18T03:52:14;98314.69;;;11.43;100.00
5284;BME280;15377;48.540;9.268;2023-02-18T03:54:39;98310.25;;;11.36;100.00
5284;BME280;15377;48.540;9.268;2023-02-18T03:57:05;98299.66;;;11.26;100.00
5284;BME280;15377;48.540;9.268;2023-02-18T03:59:30;98302.09;;;11.24;100.00
5284;BME280;15377;48.540;9.268;2023-02-18T04:01:56;98282.75;;;11.06;100.00
5284;BME280;15377;48.540;9.268;2023-02-18T04:04:21;98291.91;;;11.03;100.00
5284;BME280;15377;48.540;9.268;2023-02-18T04:06:46;98298.59;;;10.93;100.00
5284;BME280;15377;48.540;9.268;2023-02-18T04:09:12;98303.59;;;10.85;100.00
5284;BME280;15377;48.540;9.268;2023-02-18T04:11:38;98291.19;;;10.81;100.00
5284;BME280;15377;48.540;9.268;2023-02-18T04:14:04;98307.41;;;10.79;100.00
5284;BME280;15377;48.540;9.268;2023-02-18T04:16:29;98316.53;;;10.67;100.00
5284;BME280;15377;48.540;9.268;2023-02-18T04:18:54;98315.50;;;10.52;100.00
5284;BME280;15377;48.540;9.268;2023-02-18T04:21:20;98312.34;;;10.41;100.00
5284;BME280;15377;48.540;9.268;2023-02-18T04:23:45;98310.81;;;10.40;100.00
5284;BME280;15377;48.540;9.268;2023-02-18T04:26:11;98314.94;;;10.36;100.00
5284;BME280;15377;48.540;9.268;2023-02-18T04:28:36;98304.63;;;10.27;100.00
5284;BME280;15377;48.540;9.268;2023-02-18T04:31:02;98302.38;;;10.13;100.00
5284;BME280;15377;48.540;9.268;2023-02-18T04:33:27;98299.03;;;10.18;100.00
5284;BME280;15377;48.540;9.268;2023-02-18T04:35:53;98300.59;;;10.19;100.00
5284;BME280;15377;48.540;9.268;2023-02-18T04:38:18;98308.50;;;10.17;100.00
5284;BME280;15377;48.540;9.268;2023-02-18T04:40:43;98293.53;;;10.18;100.00
5284;BME280;15377;48.540;9.268;2023-02-18T04:43:09;98295.47;;;10.09;100.00
5284;BME280;15377;48.540;9.268;2023-02-18T04:45:34;98306.09;;;10.19;100.00
5284;BME280;15377;48.540;9.268;2023-02-18T04:47:59;98300.97;;;10.30;100.00
5284;BME280;15377;48.540;9.268;2023-02-18T04:50:25;98297.91;;;10.28;100.00
5284;BME280;15377;48.540;9.268;2023-02-18T04:52:50;98302.50;;;10.31;100.00
5284;BME280;15377;48.540;9.268;2023-02-18T04:55:16;98300.72;;;10.37;100.00
5284;BME280;15377;48.540;9.268;2023-02-18T04:57:41;98297.97;;;10.37;100.00
5284;BME280;15377;48.540;9.268;2023-02-18T05:00:09;98299.19;;;10.36;100.00
5284;BME280;15377;48.540;9.268;2023-02-18T05:02:35;98304.69;;;10.36;100.00
5284;BME280;15377;48.540;9.268;2023-02-18T05:05:00;98292.28;;;10.32;100.00
5284;BME280;15377;48.540;9.268;2023-02-18T05:07:26;98296.09;;;10.34;100.00
5284;BME280;15377;48.540;9.268;2023-02-18T05:09:51;98296.09;;;10.34;100.00
5284;BME280;15377;48.540;9.268;2023-02-18T05:12:16;98303.59;;;10.34;100.00
5284;BME280;15377;48.540;9.268;2023-02-18T05:14:42;98298.22;;;10.30;100.00
5284;BME280;15377;48.540;9.268;2023-02-18T05:17:07;98300.00;;;10.24;100.00
5284;BME280;15377;48.540;9.268;2023-02-18T05:19:33;98288.16;;;10.15;100.00
5284;BME280;15377;48.540;9.268;2023-02-18T05:21:58;98292.34;;;10.19;100.00
5284;BME280;15377;48.540;9.268;2023-02-18T05:24:23;98291.00;;;10.24;100.00
5284;BME280;15377;48.540;9.268;2023-02-18T05:26:49;98289.47;;;10.23;100.00
5284;BME280;15377;48.540;9.268;2023-02-18T05:29:14;98293.94;;;10.29;100.00
5284;BME280;15377;48.540;9.268;2023-02-18T05:31:40;98292.41;;;10.28;100.00
5284;BME280;15377;48.540;9.268;2023-02-18T05:34:05;98296.38;;;10.27;100.00
5284;BME280;15377;48.540;9.268;2023-02-18T05:36:31;98304.19;;;10.29;100.00
5284;BME280;15377;48.540;9.268;2023-02-18T05:38:56;98291.06;;;10.33;100.00
5284;BME280;15377;48.540;9.268;2023-02-18T05:41:21;98286.06;;;10.40;100.00
5284;BME280;15377;48.540;9.268;2023-02-18T05:43:47;98283.06;;;10.47;100.00
5284;BME280;15377;48.540;9.268;2023-02-18T05:46:31;98293.03;;;10.54;100.00
5284;BME280;15377;48.540;9.268;2023-02-18T05:48:56;98293.22;;;10.59;100.00
5284;BME280;15377;48.540;9.268;2023-02-18T05:51:22;98289.25;;;10.60;100.00
5284;BME280;15377;48.540;9.268;2023-02-18T05:53:47;98295.72;;;10.66;100.00
5284;BME280;15377;48.540;9.268;2023-02-18T05:56:12;98301.53;;;10.68;100.00
5284;BME280;15377;48.540;9.268;2023-02-18T05:58:38;98301.84;;;10.70;100.00
5284;BME280;15377;48.540;9.268;2023-02-18T06:01:03;98300.31;;;10.69;100.00
5284;BME280;15377;48.540;9.268;2023-02-18T06:03:29;98303.50;;;10.68;100.00
5284;BME280;15377;48.540;9.268;2023-02-18T06:05:54;98295.06;;;10.62;100.00
5284;BME280;15377;48.540;9.268;2023-02-18T06:08:19;98284.19;;;10.59;100.00
5284;BME280;15377;48.540;9.268;2023-02-18T06:10:45;98292.75;;;10.61;100.00
5284;BME280;15377;48.540;9.268;2023-02-18T06:13:11;98287.50;;;10.54;100.00
5284;BME280;15377;48.540;9.268;2023-02-18T06:15:37;98292.88;;;10.57;100.00
5284;BME280;15377;48.540;9.268;2023-02-18T06:18:02;98286.50;;;10.60;100.00
5284;BME280;15377;48.540;9.268;2023-02-18T06:20:28;98292.88;;;10.57;100.00
5284;BME280;15377;48.540;9.268;2023-02-18T06:22:53;98287.84;;;10.56;100.00
5284;BME280;15377;48.540;9.268;2023-02-18T06:25:18;98292.00;;;10.60;100.00
5284;BME280;15377;48.540;9.268;2023-02-18T06:27:44;98289.56;;;10.62;100.00
5284;BME280;15377;48.540;9.268;2023-02-18T06:30:09;98285.97;;;10.74;100.00
5284;BME280;15377;48.540;9.268;2023-02-18T06:32:35;98285.06;;;10.77;100.00
5284;BME280;15377;48.540;9.268;2023-02-18T06:35:01;98277.75;;;10.83;100.00
5284;BME280;15377;48.540;9.268;2023-02-18T06:37:26;98277.16;;;10.88;100.00
5284;BME280;15377;48.540;9.268;2023-02-18T06:39:52;98278.97;;;10.82;100.00
5284;BME280;15377;48.540;9.268;2023-02-18T06:42:17;98289.22;;;10.82;100.00
5284;BME280;15377;48.540;9.268;2023-02-18T06:44:45;98291.53;;;10.83;100.00
5284;BME280;15377;48.540;9.268;2023-02-18T06:47:10;98288.81;;;10.92;100.00
5284;BME280;15377;48.540;9.268;2023-02-18T06:49:36;98297.41;;;11.03;100.00
5284;BME280;15377;48.540;9.268;2023-02-18T06:52:03;98283.94;;;11.05;100.00
5284;BME280;15377;48.540;9.268;2023-02-18T06:54:28;98287.91;;;11.04;100.00
5284;BME280;15377;48.540;9.268;2023-02-18T06:56:54;98287.66;;;11.11;100.00
5284;BME280;15377;48.540;9.268;2023-02-18T06:59:19;98291.34;;;11.17;100.00
5284;BME280;15377;48.540;9.268;2023-02-18T07:01:44;98281.09;;;11.17;100.00
5284;BME280;15377;48.540;9.268;2023-02-18T07:04:10;98297.81;;;11.32;100.00
5284;BME280;15377;48.540;9.268;2023-02-18T07:06:35;98283.41;;;11.28;100.00
5284;BME280;15377;48.540;9.268;2023-02-18T07:09:00;98300.00;;;11.37;100.00
5284;BME280;15377;48.540;9.268;2023-02-18T07:11:26;98296.63;;;11.42;100.00
5284;BME280;15377;48.540;9.268;2023-02-18T07:13:51;98296.66;;;11.51;100.00
5284;BME280;15377;48.540;9.268;2023-02-18T07:16:16;98299.25;;;11.54;100.00
5284;BME280;15377;48.540;9.268;2023-02-18T07:18:42;98289.75;;;11.55;100.00
5284;BME280;15377;48.540;9.268;2023-02-18T07:21:07;98291.81;;;11.64;100.00
5284;BME280;15377;48.540;9.268;2023-02-18T07:23:32;98281.56;;;11.64;100.00
5284;BME280;15377;48.540;9.268;2023-02-18T07:26:10;98282.94;;;11.69;100.00
5284;BME280;15377;48.540;9.268;2023-02-18T07:28:36;98284.19;;;11.77;100.00
5284;BME280;15377;48.540;9.268;2023-02-18T07:31:01;98293.34;;;11.83;100.00
5284;BME280;15377;48.540;9.268;2023-02-18T07:33:27;98289.22;;;11.87;100.00
5284;BME280;15377;48.540;9.268;2023-02-18T07:35:56;98289.06;;;11.91;100.00
5284;BME280;15377;48.540;9.268;2023-02-18T07:38:23;98292.75;;;11.97;100.00
5284;BME280;15377;48.540;9.268;2023-02-18T07:40:49;98289.09;;;12.00;100.00
5284;BME280;15377;48.540;9.268;2023-02-18T07:43:14;98286.50;;;11.96;100.00
5284;BME280;15377;48.540;9.268;2023-02-18T07:45:39;98287.38;;;12.02;100.00
5284;BME280;15377;48.540;9.268;2023-02-18T07:48:05;98279.59;;;12.10;100.00
5284;BME280;15377;48.540;9.268;2023-02-18T07:50:30;98292.75;;;12.15;100.00
5284;BME280;15377;48.540;9.268;2023-02-18T07:53:01;98279.88;;;12.21;100.00
5284;BME280;15377;48.540;9.268;2023-02-18T07:55:27;98282.94;;;12.32;100.00
5284;BME280;15377;48.540;9.268;2023-02-18T07:58:17;98281.09;;;12.47;100.00
5284;BME280;15377;48.540;9.268;2023-02-18T08:00:42;98269.09;;;12.59;100.00
5284;BME280;15377;48.540;9.268;2023-02-18T08:03:07;98275.53;;;12.65;100.00
5284;BME280;15377;48.540;9.268;2023-02-18T08:05:33;98274.56;;;12.68;100.00
5284;BME280;15377;48.540;9.268;2023-02-18T08:07:58;98259.69;;;12.65;100.00
5284;BME280;15377;48.540;9.268;2023-02-18T08:10:24;98266.47;;;12.64;100.00
5284;BME280;15377;48.540;9.268;2023-02-18T08:12:49;98261.09;;;12.61;100.00
5284;BME280;15377;48.540;9.268;2023-02-18T08:15:15;98270.75;;;12.65;100.00
5284;BME280;15377;48.540;9.268;2023-02-18T08:17:41;98265.22;;;12.65;100.00
5284;BME280;15377;48.540;9.268;2023-02-18T08:20:07;98258.00;;;12.68;100.00
5284;BME280;15377;48.540;9.268;2023-02-18T08:22:42;98246.63;;;12.75;100.00
5284;BME280;15377;48.540;9.268;2023-02-18T08:25:07;98251.56;;;12.71;100.00
5284;BME280;15377;48.540;9.268;2023-02-18T08:27:33;98253.41;;;12.74;100.00
5284;BME280;15377;48.540;9.268;2023-02-18T08:30:04;98253.69;;;12.76;100.00
5284;BME280;15377;48.540;9.268;2023-02-18T08:32:30;98243.88;;;12.75;100.00
5284;BME280;15377;48.540;9.268;2023-02-18T08:34:55;98252.13;;;12.84;100.00
5284;BME280;15377;48.540;9.268;2023-02-18T08:37:24;98253.03;;;12.90;100.00
5284;BME280;15377;48.540;9.268;2023-02-18T08:39:49;98247.78;;;12.92;100.00
5284;BME280;15377;48.540;9.268;2023-02-18T08:42:15;98249.19;;;12.96;100.00
5284;BME280;15377;48.540;9.268;2023-02-18T08:44:40;98247.50;;;12.90;100.00
5284;BME280;15377;48.540;9.268;2023-02-18T08:47:06;98252.09;;;12.93;100.00
5284;BME280;15377;48.540;9.268;2023-02-18T08:49:31;98252.72;;;12.97;100.00
5284;BME280;15377;48.540;9.268;2023-02-18T08:51:56;98246.41;;;12.96;100.00
5284;BME280;15377;48.540;9.268;2023-02-18T08:54:22;98250.88;;;13.03;100.00
5284;BME280;15377;48.540;9.268;2023-02-18T08:56:47;98251.78;;;13.00;100.00
5284;BME280;15377;48.540;9.268;2023-02-18T08:59:13;98245.97;;;12.89;100.00
5284;BME280;15377;48.540;9.268;2023-02-18T09:01:38;98247.19;;;12.97;100.00
5284;BME280;15377;48.540;9.268;2023-02-18T09:04:04;98249.50;;;12.98;100.00
5284;BME280;15377;48.540;9.268;2023-02-18T09:06:29;98240.91;;;12.96;100.00
5284;BME280;15377;48.540;9.268;2023-02-18T09:08:54;98249.03;;;12.91;100.00
5284;BME280;15377;48.540;9.268;2023-02-18T09:11:20;98253.97;;;12.96;100.00
5284;BME280;15377;48.540;9.268;2023-02-18T09:13:46;98256.84;;;12.92;100.00
5284;BME280;15377;48.540;9.268;2023-02-18T09:16:16;98254.84;;;12.93;100.00
5284;BME280;15377;48.540;9.268;2023-02-18T09:18:42;98249.03;;;12.91;100.00
5284;BME280;15377;48.540;9.268;2023-02-18T09:21:09;98233.44;;;12.79;100.00
5284;BME280;15377;48.540;9.268;2023-02-18T09:23:35;98243.09;;;12.83;100.00
5284;BME280;15377;48.540;9.268;2023-02-18T09:26:10;98234.66;;;12.78;100.00
5284;BME280;15377;48.540;9.268;2023-02-18T09:28:37;98241.72;;;12.79;100.00
5284;BME280;15377;48.540;9.268;2023-02-18T09:31:06;98247.84;;;12.83;100.00
5284;BME280;15377;48.540;9.268;2023-02-18T09:33:36;98234.31;;;12.85;100.00
5284;BME280;15377;48.540;9.268;2023-02-18T09:36:02;98234.47;;;12.81;100.00
5284;BME280;15377;48.540;9.268;2023-02-18T09:38:27;98230.47;;;12.91;100.00
5284;BME280;15377;48.540;9.268;2023-02-18T09:40:53;98223.41;;;12.99;100.00
5284;BME280;15377;48.540;9.268;2023-02-18T09:45:54;98214.94;;;13.26;100.00
5284;BME280;15377;48.540;9.268;2023-02-18T09:48:26;98199.09;;;13.36;100.00
5284;BME280;15377;48.540;9.268;2023-02-18T09:50:53;98208.63;;;13.35;100.00
5284;BME280;15377;48.540;9.268;2023-02-18T09:53:20;98202.06;;;13.47;100.00
5284;BME280;15377;48.540;9.268;2023-02-18T09:55:47;98209.38;;;13.59;100.00
5284;BME280;15377;48.540;9.268;2023-02-18T09:58:15;98192.47;;;13.57;100.00
5284;BME280;15377;48.540;9.268;2023-02-18T10:00:49;98194.88;;;13.64;100.00
5284;BME280;15377;48.540;9.268;2023-02-18T10:03:21;98192.97;;;13.70;100.00
5284;BME280;15377;48.540;9.268;2023-02-18T10:05:55;98199.47;;;13.67;100.00
5284;BME280;15377;48.540;9.268;2023-02-18T10:08:25;98190.13;;;13.64;100.00
5284;BME280;15377;48.540;9.268;2023-02-18T10:10:51;98193.34;;;13.63;100.00
5284;BME280;15377;48.540;9.268;2023-02-18T10:13:23;98207.16;;;13.63;100.00
5284;BME280;15377;48.540;9.268;2023-02-18T10:15:49;98204.41;;;13.63;100.00
5284;BME280;15377;48.540;9.268;2023-02-18T10:20:55;98197.06;;;13.60;100.00
5284;BME280;15377;48.540;9.268;2023-02-18T10:23:23;98216.44;;;13.60;100.00
5284;BME280;15377;48.540;9.268;2023-02-18T10:25:50;98211.25;;;13.53;100.00
5284;BME280;15377;48.540;9.268;2023-02-18T10:28:18;98214.78;;;13.53;100.00
5284;BME280;15377;48.540;9.268;2023-02-18T10:31:07;98217.13;;;13.46;100.00
5284;BME280;15377;48.540;9.268;2023-02-18T10:36:29;98177.44;;;13.11;100.00
5284;BME280;15377;48.540;9.268;2023-02-18T10:47:15;98206.59;;;13.35;100.00
5284;BME280;15377;48.540;9.268;2023-02-18T10:49:51;98206.41;;;13.39;100.00
5284;BME280;15377;48.540;9.268;2023-02-18T10:52:19;98219.72;;;13.26;100.00
5284;BME280;15377;48.540;9.268;2023-02-18T10:55:04;98213.44;;;13.25;100.00
5284;BME280;15377;48.540;9.268;2023-02-18T10:57:30;98219.13;;;13.22;100.00
5284;BME280;15377;48.540;9.268;2023-02-18T11:02:39;98241.34;;;13.27;100.00
5284;BME280;15377;48.540;9.268;2023-02-18T11:05:33;98243.38;;;13.27;100.00
5284;BME280;15377;48.540;9.268;2023-02-18T11:07:59;98232.72;;;13.34;100.00
5284;BME280;15377;48.540;9.268;2023-02-18T11:10:32;98226.44;;;13.34;100.00
5284;BME280;15377;48.540;9.268;2023-02-18T11:13:07;98220.91;;;13.34;100.00
5284;BME280;15377;48.540;9.268;2023-02-18T11:15:34;98213.19;;;13.38;100.00
5284;BME280;15377;48.540;9.268;2023-02-18T11:20:55;98204.75;;;13.56;100.00
5284;BME280;15377;48.540;9.268;2023-02-18T11:23:22;98201.47;;;13.66;100.00
5284;BME280;15377;48.540;9.268;2023-02-18T11:26:05;98194.22;;;13.69;100.00
5284;BME280;15377;48.540;9.268;2023-02-18T11:28:49;98191.66;;;13.80;100.00
5284;BME280;15377;48.540;9.268;2023-02-18T11:31:26;98195.69;;;13.79;100.00
5284;BME280;15377;48.540;9.268;2023-02-18T11:33:58;98192.53;;;13.86;100.00
5284;BME280;15377;48.540;9.268;2023-02-18T11:38:51;98182.34;;;13.92;100.00
5284;BME280;15377;48.540;9.268;2023-02-18T11:41:38;98180.03;;;13.90;100.00
5284;BME280;15377;48.540;9.268;2023-02-18T11:44:07;98170.03;;;13.93;100.00
5284;BME280;15377;48.540;9.268;2023-02-18T11:46:56;98145.22;;;13.84;100.00
5284;BME280;15377;48.540;9.268;2023-02-18T11:49:23;98159.63;;;13.88;100.00
5284;BME280;15377;48.540;9.268;2023-02-18T11:51:49;98162.31;;;13.97;100.00
5284;BME280;15377;48.540;9.268;2023-02-18T11:54:27;98161.38;;;14.00;100.00
5284;BME280;15377;48.540;9.268;2023-02-18T11:56:58;98156.00;;;13.96;100.00
5284;BME280;15377;48.540;9.268;2023-02-18T11:59:25;98136.75;;;14.02;100.00
5284;BME280;15377;48.540;9.268;2023-02-18T12:04:37;98164.03;;;14.09;100.00
5284;BME280;15377;48.540;9.268;2023-02-18T12:07:24;98167.59;;;14.09;100.00
5284;BME280;15377;48.540;9.268;2023-02-18T12:09:54;98160.63;;;14.28;100.00
5284;BME280;15377;48.540;9.268;2023-02-18T12:12:24;98157.28;;;14.39;100.00
5284;BME280;15377;48.540;9.268;2023-02-18T12:14:53;98152.69;;;14.50;100.00
5284;BME280;15377;48.540;9.268;2023-02-18T12:22:45;98144.94;;;14.69;100.00
5284;BME280;15377;48.540;9.268;2023-02-18T12:34:22;98145.25;;;14.13;100.00
5284;BME280;15377;48.540;9.268;2023-02-18T12:37:13;98148.41;;;14.06;100.00
5284;BME280;15377;48.540;9.268;2023-02-18T12:47:30;98136.94;;;14.42;100.00
5284;BME280;15377;48.540;9.268;2023-02-18T12:50:14;98127.56;;;14.54;100.00
5284;BME280;15377;48.540;9.268;2023-02-18T13:04:23;98121.50;;;15.04;100.00
5284;BME280;15377;48.540;9.268;2023-02-18T13:12:29;98106.19;;;15.08;100.00
5284;BME280;15377;48.540;9.268;2023-02-18T13:17:47;98096.06;;;15.05;100.00
5284;BME280;15377;48.540;9.268;2023-02-18T13:20:20;98082.75;;;14.89;100.00
5284;BME280;15377;48.540;9.268;2023-02-18T13:22:48;98076.09;;;14.81;100.00
5284;BME280;15377;48.540;9.268;2023-02-18T13:25:16;98085.81;;;14.91;100.00
5284;BME280;15377;48.540;9.268;2023-02-18T13:27:47;98079.03;;;14.92;100.00
5284;BME280;15377;48.540;9.268;2023-02-18T13:30:20;98075.84;;;14.99;100.00
5284;BME280;15377;48.540;9.268;2023-02-18T13:33:05;98077.34;;;15.00;100.00
5284;BME280;15377;48.540;9.268;2023-02-18T13:40:50;98083.81;;;14.58;100.00
5284;BME280;15377;48.540;9.268;2023-02-18T13:43:28;98080.22;;;14.52;100.00
5284;BME280;15377;48.540;9.268;2023-02-18T13:46:14;98075.81;;;14.60;100.00
5284;BME280;15377;48.540;9.268;2023-02-18T13:48:43;98091.38;;;14.77;100.00
5284;BME280;15377;48.540;9.268;2023-02-18T13:51:14;98073.56;;;14.64;100.00
5284;BME280;15377;48.540;9.268;2023-02-18T13:53:42;98074.94;;;14.54;100.00
5284;BME280;15377;48.540;9.268;2023-02-18T13:56:19;98086.22;;;14.50;100.00
5284;BME280;15377;48.540;9.268;2023-02-18T13:58:50;98082.41;;;14.48;100.00
5284;BME280;15377;48.540;9.268;2023-02-18T14:04:03;98070.44;;;14.22;100.00
5284;BME280;15377;48.540;9.268;2023-02-18T14:06:33;98082.44;;;14.19;100.00
5284;BME280;15377;48.540;9.268;2023-02-18T14:11:57;98080.03;;;14.12;100.00
5284;BME280;15377;48.540;9.268;2023-02-18T14:14:39;98085.03;;;14.08;100.00
5284;BME280;15377;48.540;9.268;2023-02-18T14:22:46;98068.97;;;14.12;100.00
5284;BME280;15377;48.540;9.268;2023-02-18T14:25:21;98073.84;;;14.17;100.00
5284;BME280;15377;48.540;9.268;2023-02-18T14:27:52;98073.56;;;14.15;100.00
5284;BME280;15377;48.540;9.268;2023-02-18T14:32:48;98067.28;;;14.00;100.00
5284;BME280;15377;48.540;9.268;2023-02-18T14:35:36;98059.16;;;13.96;100.00
5284;BME280;15377;48.540;9.268;2023-02-18T14:43:49;98052.84;;;13.96;100.00
5284;BME280;15377;48.540;9.268;2023-02-18T14:51:43;98052.19;;;14.01;100.00
5284;BME280;15377;48.540;9.268;2023-02-18T14:54:15;98046.50;;;13.90;100.00
5284;BME280;15377;48.540;9.268;2023-02-18T14:59:24;98059.47;;;13.84;100.00
5284;BME280;15377;48.540;9.268;2023-02-18T15:01:55;98047.94;;;13.85;100.00
5284;BME280;15377;48.540;9.268;2023-02-18T15:04:23;98044.66;;;13.87;100.00
5284;BME280;15377;48.540;9.268;2023-02-18T15:07:01;98058.50;;;13.87;100.00
5284;BME280;15377;48.540;9.268;2023-02-18T15:09:27;98044.56;;;13.96;100.00
5284;BME280;15377;48.540;9.268;2023-02-18T15:11:59;98043.63;;;13.99;100.00
5284;BME280;15377;48.540;9.268;2023-02-18T15:14:30;98051.22;;;14.04;100.00
5284;BME280;15377;48.540;9.268;2023-02-18T15:16:57;98050.00;;;14.05;100.00
5284;BME280;15377;48.540;9.268;2023-02-18T15:19:28;98039.69;;;14.05;100.00
5284;BME280;15377;48.540;9.268;2023-02-18T15:21:56;98045.69;;;14.04;100.00